createdAt,value
2023-05-13T00:08:20.091Z,11.50
2023-05-13T00:18:21.776Z,11.50
2023-05-13T00:28:24.213Z,11.40
2023-05-13T00:38:25.889Z,11.30
2023-05-13T00:48:27.684Z,11.30
2023-05-13T00:58:29.337Z,11.20
2023-05-13T01:09:07.349Z,11.20
2023-05-13T01:19:40.171Z,11.10
2023-05-13T01:29:42.242Z,11.10
2023-05-13T01:39:43.960Z,11.10
2023-05-13T01:49:45.571Z,11.10
2023-05-13T01:59:47.188Z,11.10
2023-05-13T02:09:48.839Z,11.00
2023-05-13T02:19:50.647Z,10.90
2023-05-13T02:29:52.265Z,10.80
2023-05-13T02:39:53.935Z,10.80
2023-05-13T02:49:56.525Z,10.70
2023-05-13T02:59:58.191Z,10.70
2023-05-13T03:09:59.856Z,10.70
2023-05-13T03:20:01.540Z,10.60
2023-05-13T03:30:03.377Z,10.60
2023-05-13T03:40:06.004Z,10.60
2023-05-13T03:50:08.537Z,10.50
2023-05-13T04:00:10.891Z,10.40
2023-05-13T04:10:15.411Z,10.40
2023-05-13T04:20:17.358Z,10.40
2023-05-13T04:30:19.107Z,10.60
2023-05-13T04:40:21.160Z,10.70
2023-05-13T04:50:23.279Z,11.00
2023-05-13T05:00:25.572Z,10.80
2023-05-13T05:10:27.546Z,11.00
2023-05-13T05:20:29.200Z,11.60
2023-05-13T05:30:39.166Z,11.60
2023-05-13T05:40:43.443Z,12.20
2023-05-13T05:50:45.195Z,12.40
2023-05-13T06:00:47.182Z,12.70
2023-05-13T06:10:49.074Z,13.30
2023-05-13T06:20:50.732Z,13.40
2023-05-13T06:30:53.804Z,13.80
2023-05-13T06:40:55.731Z,14.00
2023-05-13T06:50:57.343Z,14.30
2023-05-13T07:00:59.074Z,14.80
2023-05-13T07:11:00.835Z,15.10
2023-05-13T07:21:02.553Z,15.50
2023-05-13T07:31:07.399Z,15.80
2023-05-13T07:41:09.114Z,16.00
2023-05-13T07:51:10.812Z,16.30
2023-05-13T08:01:12.492Z,16.40
2023-05-13T08:11:14.124Z,16.50
2023-05-13T08:21:15.821Z,16.70
2023-05-13T08:31:17.511Z,17.00
2023-05-13T08:41:21.705Z,17.00
2023-05-13T08:51:24.216Z,17.30
2023-05-13T09:01:26.830Z,17.60
2023-05-13T09:11:29.078Z,17.70
2023-05-13T09:21:32.531Z,17.60
2023-05-13T09:31:34.407Z,17.60
2023-05-13T09:41:36.665Z,17.80
2023-05-13T09:51:38.640Z,18.20
2023-05-13T10:01:41.385Z,18.50
2023-05-13T10:11:47.408Z,18.80
2023-05-13T10:21:50.476Z,19.40
2023-05-13T10:31:52.470Z,19.90
2023-05-13T10:42:09.043Z,19.90
2023-05-13T10:52:15.204Z,19.70
2023-05-13T11:02:24.078Z,19.70
2023-05-13T11:12:25.854Z,19.90
2023-05-13T11:22:30.760Z,20.30
2023-05-13T11:32:51.248Z,20.50
2023-05-13T11:42:53.779Z,20.60
2023-05-13T11:52:57.450Z,20.60
2023-05-13T12:03:00.394Z,20.70
2023-05-13T12:13:02.775Z,20.80
2023-05-13T12:23:05.264Z,20.80
2023-05-13T12:33:16.188Z,21.30
2023-05-13T12:43:19.598Z,21.50
2023-05-13T12:53:21.521Z,21.20
2023-05-13T13:03:24.610Z,21.00
2023-05-13T13:13:27.055Z,21.10
2023-05-13T13:23:28.782Z,21.30
2023-05-13T13:33:30.521Z,21.70
2023-05-13T13:43:32.137Z,22.00
2023-05-13T13:53:33.876Z,22.20
2023-05-13T14:03:36.019Z,22.70
2023-05-13T14:13:37.745Z,22.50
2023-05-13T14:23:41.679Z,22.20
2023-05-13T14:33:43.336Z,21.30
2023-05-13T14:43:45.608Z,20.30
2023-05-13T14:53:47.225Z,19.20
2023-05-13T15:03:48.990Z,19.00
2023-05-13T15:13:50.839Z,18.70
2023-05-13T15:23:52.810Z,18.60
2023-05-13T15:33:54.488Z,18.60
2023-05-13T15:43:56.118Z,18.80
2023-05-13T15:53:57.831Z,19.20
2023-05-13T16:03:59.477Z,19.60
2023-05-13T16:14:01.245Z,19.50
2023-05-13T16:24:02.973Z,19.20
2023-05-13T16:34:04.599Z,20.20
2023-05-13T16:44:06.389Z,20.50
2023-05-13T16:54:08.042Z,24.00
2023-05-13T17:04:09.663Z,24.20
2023-05-13T17:14:11.294Z,25.90
2023-05-13T17:24:12.966Z,25.90
2023-05-13T17:34:14.600Z,28.60
2023-05-13T17:44:16.224Z,27.60
2023-05-13T17:54:17.820Z,24.00
2023-05-13T18:04:19.472Z,22.10
2023-05-13T18:14:21.152Z,21.10
2023-05-13T18:24:22.818Z,20.10
2023-05-13T18:34:24.991Z,19.90
2023-05-13T18:44:26.630Z,19.40
2023-05-13T18:54:29.259Z,18.90
2023-05-13T19:04:31.099Z,18.80
2023-05-13T19:14:32.801Z,18.50
2023-05-13T19:24:34.447Z,18.10
2023-05-13T19:34:36.178Z,18.10
2023-05-13T19:44:38.332Z,18.00
2023-05-13T19:54:39.976Z,17.90
2023-05-13T20:04:41.738Z,17.80
2023-05-13T20:14:45.287Z,17.60
2023-05-13T20:24:47.931Z,17.60
2023-05-13T20:34:49.583Z,17.50
2023-05-13T20:44:51.901Z,17.50
2023-05-13T20:54:53.639Z,17.20
2023-05-13T21:04:55.709Z,17.10
2023-05-13T21:14:57.337Z,16.80
2023-05-13T21:24:59.079Z,16.60
2023-05-13T21:35:00.714Z,16.40
2023-05-13T21:45:03.215Z,16.40
2023-05-13T21:55:05.234Z,16.30
2023-05-13T22:05:07.155Z,16.00
2023-05-13T22:15:09.459Z,15.80
2023-05-13T22:25:11.225Z,15.50
2023-05-13T22:35:13.059Z,15.30
2023-05-13T22:45:15.840Z,15.10
2023-05-13T22:55:17.534Z,14.90
2023-05-13T23:05:19.351Z,14.70
2023-05-13T23:15:21.045Z,14.50
2023-05-13T23:25:22.662Z,14.20
2023-05-13T23:35:24.322Z,14.10
2023-05-13T23:45:26.127Z,13.90
2023-05-13T23:55:27.864Z,13.70
